Terminal Aerodrome Forecast
Issued by NWS

Home | Current Version | Previous Version | Text Only | Print | Product List | Glossary On
Versions: 1 2 3 4 5 6 7 8 9 10 11 12 13
094
FTUS43 KOAX 280520
TAFSNY
TAF
KSNY 280520Z 2806/2906 16014KT P6SM BKN050 OVC100
     FM280900 14014KT 6SM -RA BKN015 OVC025
     FM281400 13014KT 1 1/2SM -RA OVC007
     FM281800 12017G25KT 1SM -RA BKN004 OVC007=

USA.gov is the U.S. government's official web portal to all federal, state and local government web resources and services.